sensor_id;sensor_type;location;lat;lon;timestamp;temperature;humidity
23301;DHT22;11819;51.394;12.340;2023-04-01T00:01:34;10.20;98.40
23301;DHT22;11819;51.394;12.340;2023-04-01T00:04:00;10.20;98.40
23301;DHT22;11819;51.394;12.340;2023-04-01T00:06:32;10.20;98.40
23301;DHT22;11819;51.394;12.340;2023-04-01T00:08:58;10.20;98.40
23301;DHT22;11819;51.394;12.340;2023-04-01T00:11:23;10.20;98.40
23301;DHT22;11819;51.394;12.340;2023-04-01T00:13:49;10.20;98.50
23301;DHT22;11819;51.394;12.340;2023-04-01T00:16:16;10.20;98.50
23301;DHT22;11819;51.394;12.340;2023-04-01T00:18:42;10.20;98.50
23301;DHT22;11819;51.394;12.340;2023-04-01T00:21:10;10.20;98.50
23301;DHT22;11819;51.394;12.340;2023-04-01T00:23:37;10.20;98.50
23301;DHT22;11819;51.394;12.340;2023-04-01T00:26:05;10.20;98.60
23301;DHT22;11819;51.394;12.340;2023-04-01T00:28:31;10.20;98.50
23301;DHT22;11819;51.394;12.340;2023-04-01T00:31:08;10.20;98.60
23301;DHT22;11819;51.394;12.340;2023-04-01T00:33:46;10.20;98.60
23301;DHT22;11819;51.394;12.340;2023-04-01T00:36:32;10.20;98.60
23301;DHT22;11819;51.394;12.340;2023-04-01T00:39:22;10.20;98.60
23301;DHT22;11819;51.394;12.340;2023-04-01T01:02:11;10.30;98.70
23301;DHT22;11819;51.394;12.340;2023-04-01T01:31:55;10.40;98.60
23301;DHT22;11819;51.394;12.340;2023-04-01T01:38:16;10.40;98.40
23301;DHT22;11819;51.394;12.340;2023-04-01T01:41:21;10.40;98.40
23301;DHT22;11819;51.394;12.340;2023-04-01T01:45:18;10.40;98.30
23301;DHT22;11819;51.394;12.340;2023-04-01T01:49:06;10.40;98.30
23301;DHT22;11819;51.394;12.340;2023-04-01T01:51:37;10.40;98.30
23301;DHT22;11819;51.394;12.340;2023-04-01T01:54:32;10.40;98.20
23301;DHT22;11819;51.394;12.340;2023-04-01T01:57:09;10.30;98.10
23301;DHT22;11819;51.394;12.340;2023-04-01T01:59:56;10.30;98.20
23301;DHT22;11819;51.394;12.340;2023-04-01T02:02:51;10.30;98.20
23301;DHT22;11819;51.394;12.340;2023-04-01T02:05:37;10.20;98.20
23301;DHT22;11819;51.394;12.340;2023-04-01T02:08:14;10.20;98.20
23301;DHT22;11819;51.394;12.340;2023-04-01T02:11:07;10.20;98.20
23301;DHT22;11819;51.394;12.340;2023-04-01T02:13:58;10.20;98.20
23301;DHT22;11819;51.394;12.340;2023-04-01T02:16:53;10.20;98.20
23301;DHT22;11819;51.394;12.340;2023-04-01T02:20:13;10.20;98.20
23301;DHT22;11819;51.394;12.340;2023-04-01T02:23:12;10.20;98.20
23301;DHT22;11819;51.394;12.340;2023-04-01T02:26:15;10.20;98.10
23301;DHT22;11819;51.394;12.340;2023-04-01T02:29:08;10.30;98.10
23301;DHT22;11819;51.394;12.340;2023-04-01T02:31:45;10.20;98.10
23301;DHT22;11819;51.394;12.340;2023-04-01T02:34:43;10.20;98.10
23301;DHT22;11819;51.394;12.340;2023-04-01T02:37:21;10.20;98.00
23301;DHT22;11819;51.394;12.340;2023-04-01T02:39:47;10.30;98.00
23301;DHT22;11819;51.394;12.340;2023-04-01T02:42:28;10.30;98.00
23301;DHT22;11819;51.394;12.340;2023-04-01T02:44:53;10.30;98.00
23301;DHT22;11819;51.394;12.340;2023-04-01T02:47:19;10.30;98.00
23301;DHT22;11819;51.394;12.340;2023-04-01T02:49:45;10.30;98.00
23301;DHT22;11819;51.394;12.340;2023-04-01T02:52:10;10.30;97.90
23301;DHT22;11819;51.394;12.340;2023-04-01T02:54:36;10.30;97.90
23301;DHT22;11819;51.394;12.340;2023-04-01T02:57:03;10.30;97.80
23301;DHT22;11819;51.394;12.340;2023-04-01T02:59:29;10.40;97.80
23301;DHT22;11819;51.394;12.340;2023-04-01T03:01:55;10.40;98.10
23301;DHT22;11819;51.394;12.340;2023-04-01T03:04:20;10.40;97.70
23301;DHT22;11819;51.394;12.340;2023-04-01T03:06:46;10.40;97.70
23301;DHT22;11819;51.394;12.340;2023-04-01T03:09:18;10.40;97.70
23301;DHT22;11819;51.394;12.340;2023-04-01T03:11:43;10.40;97.70
23301;DHT22;11819;51.394;12.340;2023-04-01T03:14:09;10.40;97.70
23301;DHT22;11819;51.394;12.340;2023-04-01T03:16:36;10.40;97.70
23301;DHT22;11819;51.394;12.340;2023-04-01T03:19:02;10.40;97.60
23301;DHT22;11819;51.394;12.340;2023-04-01T03:21:28;10.40;97.60
23301;DHT22;11819;51.394;12.340;2023-04-01T03:23:53;10.40;97.50
23301;DHT22;11819;51.394;12.340;2023-04-01T03:26:19;10.30;97.50
23301;DHT22;11819;51.394;12.340;2023-04-01T03:28:47;10.30;97.50
23301;DHT22;11819;51.394;12.340;2023-04-01T03:31:17;10.30;97.60
23301;DHT22;11819;51.394;12.340;2023-04-01T03:33:49;10.30;97.60
23301;DHT22;11819;51.394;12.340;2023-04-01T03:36:17;10.20;97.60
23301;DHT22;11819;51.394;12.340;2023-04-01T03:38:44;10.20;97.60
23301;DHT22;11819;51.394;12.340;2023-04-01T03:41:14;10.20;97.60
23301;DHT22;11819;51.394;12.340;2023-04-01T03:43:40;10.20;97.60
23301;DHT22;11819;51.394;12.340;2023-04-01T03:46:22;10.20;97.70
23301;DHT22;11819;51.394;12.340;2023-04-01T03:48:49;10.20;97.70
23301;DHT22;11819;51.394;12.340;2023-04-01T03:51:15;10.20;97.80
23301;DHT22;11819;51.394;12.340;2023-04-01T03:53:41;10.20;97.80
23301;DHT22;11819;51.394;12.340;2023-04-01T03:56:08;10.20;97.80
23301;DHT22;11819;51.394;12.340;2023-04-01T03:58:36;10.20;97.80
23301;DHT22;11819;51.394;12.340;2023-04-01T04:01:17;10.20;97.80
23301;DHT22;11819;51.394;12.340;2023-04-01T04:03:43;10.10;98.10
23301;DHT22;11819;51.394;12.340;2023-04-01T04:06:12;10.10;97.80
23301;DHT22;11819;51.394;12.340;2023-04-01T04:08:41;10.10;97.80
23301;DHT22;11819;51.394;12.340;2023-04-01T04:11:07;10.10;97.80
23301;DHT22;11819;51.394;12.340;2023-04-01T04:13:36;10.10;97.90
23301;DHT22;11819;51.394;12.340;2023-04-01T04:16:05;10.10;97.90
23301;DHT22;11819;51.394;12.340;2023-04-01T04:18:32;10.00;97.90
23301;DHT22;11819;51.394;12.340;2023-04-01T04:20:57;10.00;97.90
23301;DHT22;11819;51.394;12.340;2023-04-01T04:23:24;10.00;98.00
23301;DHT22;11819;51.394;12.340;2023-04-01T04:26:05;10.00;98.00
23301;DHT22;11819;51.394;12.340;2023-04-01T04:28:33;10.00;98.00
23301;DHT22;11819;51.394;12.340;2023-04-01T04:30:59;10.00;98.10
23301;DHT22;11819;51.394;12.340;2023-04-01T04:33:27;10.00;98.10
23301;DHT22;11819;51.394;12.340;2023-04-01T04:35:56;10.00;98.10
23301;DHT22;11819;51.394;12.340;2023-04-01T04:38:23;10.00;98.10
23301;DHT22;11819;51.394;12.340;2023-04-01T04:40:51;10.00;98.10
23301;DHT22;11819;51.394;12.340;2023-04-01T04:43:17;10.00;98.20
23301;DHT22;11819;51.394;12.340;2023-04-01T04:45:45;10.00;98.20
23301;DHT22;11819;51.394;12.340;2023-04-01T04:48:12;10.10;98.20
23301;DHT22;11819;51.394;12.340;2023-04-01T04:50:49;10.10;98.20
23301;DHT22;11819;51.394;12.340;2023-04-01T04:53:18;10.10;98.20
23301;DHT22;11819;51.394;12.340;2023-04-01T04:55:49;10.10;98.20
23301;DHT22;11819;51.394;12.340;2023-04-01T04:58:27;10.10;98.20
23301;DHT22;11819;51.394;12.340;2023-04-01T05:00:55;10.10;98.20
23301;DHT22;11819;51.394;12.340;2023-04-01T05:03:29;10.10;98.20
23301;DHT22;11819;51.394;12.340;2023-04-01T05:05:54;10.10;98.20
23301;DHT22;11819;51.394;12.340;2023-04-01T05:08:20;10.10;98.20
23301;DHT22;11819;51.394;12.340;2023-04-01T05:10:46;10.00;98.30
23301;DHT22;11819;51.394;12.340;2023-04-01T05:13:12;10.10;98.40
23301;DHT22;11819;51.394;12.340;2023-04-01T05:15:38;10.10;98.30
23301;DHT22;11819;51.394;12.340;2023-04-01T05:18:04;10.10;98.30
23301;DHT22;11819;51.394;12.340;2023-04-01T05:20:30;10.10;98.40
23301;DHT22;11819;51.394;12.340;2023-04-01T05:23:01;10.10;98.30
23301;DHT22;11819;51.394;12.340;2023-04-01T05:25:27;10.10;98.40
23301;DHT22;11819;51.394;12.340;2023-04-01T05:27:53;10.20;98.40
23301;DHT22;11819;51.394;12.340;2023-04-01T05:30:23;10.20;98.30
23301;DHT22;11819;51.394;12.340;2023-04-01T05:33:01;10.20;98.30
23301;DHT22;11819;51.394;12.340;2023-04-01T05:35:28;10.10;98.30
23301;DHT22;11819;51.394;12.340;2023-04-01T05:37:54;10.10;98.40
23301;DHT22;11819;51.394;12.340;2023-04-01T05:40:20;10.20;98.50
23301;DHT22;11819;51.394;12.340;2023-04-01T05:42:46;10.20;98.40
23301;DHT22;11819;51.394;12.340;2023-04-01T05:45:13;10.20;98.50
23301;DHT22;11819;51.394;12.340;2023-04-01T05:48:02;10.20;98.50
23301;DHT22;11819;51.394;12.340;2023-04-01T05:50:33;10.30;98.40
23301;DHT22;11819;51.394;12.340;2023-04-01T05:53:01;10.30;98.40
23301;DHT22;11819;51.394;12.340;2023-04-01T05:55:28;10.30;98.30
23301;DHT22;11819;51.394;12.340;2023-04-01T05:57:53;10.30;98.30
23301;DHT22;11819;51.394;12.340;2023-04-01T06:00:22;10.40;98.30
23301;DHT22;11819;51.394;12.340;2023-04-01T06:02:48;10.40;98.20
23301;DHT22;11819;51.394;12.340;2023-04-01T06:05:20;10.40;98.20
23301;DHT22;11819;51.394;12.340;2023-04-01T06:07:48;10.40;98.20
23301;DHT22;11819;51.394;12.340;2023-04-01T06:10:19;10.40;98.20
23301;DHT22;11819;51.394;12.340;2023-04-01T06:12:54;10.40;98.20
23301;DHT22;11819;51.394;12.340;2023-04-01T06:15:58;10.40;98.10
23301;DHT22;11819;51.394;12.340;2023-04-01T06:18:39;10.40;98.10
23301;DHT22;11819;51.394;12.340;2023-04-01T06:21:37;10.40;98.00
23301;DHT22;11819;51.394;12.340;2023-04-01T06:29:54;10.50;97.90
23301;DHT22;11819;51.394;12.340;2023-04-01T06:32:26;10.60;97.90
23301;DHT22;11819;51.394;12.340;2023-04-01T06:43:39;10.60;97.80
23301;DHT22;11819;51.394;12.340;2023-04-01T06:55:44;10.90;97.70
23301;DHT22;11819;51.394;12.340;2023-04-01T06:58:19;10.90;97.60
23301;DHT22;11819;51.394;12.340;2023-04-01T07:00:50;11.00;97.50
23301;DHT22;11819;51.394;12.340;2023-04-01T07:03:40;11.00;97.50
23301;DHT22;11819;51.394;12.340;2023-04-01T07:06:16;11.00;97.30
23301;DHT22;11819;51.394;12.340;2023-04-01T07:08:55;11.00;97.10
23301;DHT22;11819;51.394;12.340;2023-04-01T07:11:34;11.00;97.00
23301;DHT22;11819;51.394;12.340;2023-04-01T07:14:30;11.00;97.00
23301;DHT22;11819;51.394;12.340;2023-04-01T07:17:12;11.00;97.00
23301;DHT22;11819;51.394;12.340;2023-04-01T07:20:05;11.00;96.80
23301;DHT22;11819;51.394;12.340;2023-04-01T07:22:42;11.00;96.50
23301;DHT22;11819;51.394;12.340;2023-04-01T07:25:40;11.00;96.40
23301;DHT22;11819;51.394;12.340;2023-04-01T07:28:30;11.10;96.50
23301;DHT22;11819;51.394;12.340;2023-04-01T07:36:39;11.20;95.80
23301;DHT22;11819;51.394;12.340;2023-04-01T07:39:47;11.20;95.70
23301;DHT22;11819;51.394;12.340;2023-04-01T07:53:38;11.20;94.90
23301;DHT22;11819;51.394;12.340;2023-04-01T07:56:19;11.20;94.80
23301;DHT22;11819;51.394;12.340;2023-04-01T07:59:03;11.20;94.70
23301;DHT22;11819;51.394;12.340;2023-04-01T08:02:37;11.30;94.70
23301;DHT22;11819;51.394;12.340;2023-04-01T08:05:04;11.30;94.60
23301;DHT22;11819;51.394;12.340;2023-04-01T08:07:55;11.30;94.40
23301;DHT22;11819;51.394;12.340;2023-04-01T08:14:33;11.30;93.80
23301;DHT22;11819;51.394;12.340;2023-04-01T08:25:09;11.30;93.50
23301;DHT22;11819;51.394;12.340;2023-04-01T08:27:45;11.40;93.20
23301;DHT22;11819;51.394;12.340;2023-04-01T08:33:25;11.50;93.10
23301;DHT22;11819;51.394;12.340;2023-04-01T08:36:20;11.50;92.90
23301;DHT22;11819;51.394;12.340;2023-04-01T08:38:59;11.50;92.90
23301;DHT22;11819;51.394;12.340;2023-04-01T08:44:34;11.60;92.80
23301;DHT22;11819;51.394;12.340;2023-04-01T08:47:20;11.60;92.80
23301;DHT22;11819;51.394;12.340;2023-04-01T08:49:56;11.60;92.60
23301;DHT22;11819;51.394;12.340;2023-04-01T08:56:17;11.70;92.80
23301;DHT22;11819;51.394;12.340;2023-04-01T09:02:15;11.80;92.70
23301;DHT22;11819;51.394;12.340;2023-04-01T09:10:41;11.80;92.30
23301;DHT22;11819;51.394;12.340;2023-04-01T09:13:49;11.80;92.10
23301;DHT22;11819;51.394;12.340;2023-04-01T09:22:09;11.80;92.00
23301;DHT22;11819;51.394;12.340;2023-04-01T09:27:56;11.90;91.90
23301;DHT22;11819;51.394;12.340;2023-04-01T09:36:12;12.10;92.10
23301;DHT22;11819;51.394;12.340;2023-04-01T09:41:44;12.20;91.70
23301;DHT22;11819;51.394;12.340;2023-04-01T09:45:13;12.20;91.60
23301;DHT22;11819;51.394;12.340;2023-04-01T09:48:00;12.30;91.60
23301;DHT22;11819;51.394;12.340;2023-04-01T09:50:49;12.30;91.50
23301;DHT22;11819;51.394;12.340;2023-04-01T09:53:28;12.30;91.30
23301;DHT22;11819;51.394;12.340;2023-04-01T09:58:43;12.30;91.30
23301;DHT22;11819;51.394;12.340;2023-04-01T10:02:28;12.40;91.40
23301;DHT22;11819;51.394;12.340;2023-04-01T10:05:34;12.30;91.00
23301;DHT22;11819;51.394;12.340;2023-04-01T10:11:36;12.20;91.50
23301;DHT22;11819;51.394;12.340;2023-04-01T10:25:49;12.20;91.60
23301;DHT22;11819;51.394;12.340;2023-04-01T10:47:19;12.10;92.50
23301;DHT22;11819;51.394;12.340;2023-04-01T11:00:18;12.10;92.70
23301;DHT22;11819;51.394;12.340;2023-04-01T11:11:57;12.20;92.20
23301;DHT22;11819;51.394;12.340;2023-04-01T11:23:50;12.30;91.60
23301;DHT22;11819;51.394;12.340;2023-04-01T11:29:42;12.30;91.70
23301;DHT22;11819;51.394;12.340;2023-04-01T11:41:29;12.40;91.80
23301;DHT22;11819;51.394;12.340;2023-04-01T11:44:25;12.40;91.50
23301;DHT22;11819;51.394;12.340;2023-04-01T11:47:24;12.50;91.60
23301;DHT22;11819;51.394;12.340;2023-04-01T11:58:53;13.00;90.50
23301;DHT22;11819;51.394;12.340;2023-04-01T12:01:42;13.00;90.20
23301;DHT22;11819;51.394;12.340;2023-04-01T12:07:50;12.90;90.80
23301;DHT22;11819;51.394;12.340;2023-04-01T12:10:27;12.80;90.70
23301;DHT22;11819;51.394;12.340;2023-04-01T12:13:04;12.80;90.70
23301;DHT22;11819;51.394;12.340;2023-04-01T12:16:04;12.70;90.00
23301;DHT22;11819;51.394;12.340;2023-04-01T12:19:04;12.50;90.10
23301;DHT22;11819;51.394;12.340;2023-04-01T12:41:55;12.60;89.80
23301;DHT22;11819;51.394;12.340;2023-04-01T12:47:28;12.60;88.90
23301;DHT22;11819;51.394;12.340;2023-04-01T12:52:49;12.70;89.10
23301;DHT22;11819;51.394;12.340;2023-04-01T12:55:40;12.70;88.70
23301;DHT22;11819;51.394;12.340;2023-04-01T13:07:22;12.70;89.70
23301;DHT22;11819;51.394;12.340;2023-04-01T13:16:07;12.50;90.50
23301;DHT22;11819;51.394;12.340;2023-04-01T13:24:13;12.40;90.90
23301;DHT22;11819;51.394;12.340;2023-04-01T13:29:38;12.30;91.20
23301;DHT22;11819;51.394;12.340;2023-04-01T13:34:59;12.30;91.40
23301;DHT22;11819;51.394;12.340;2023-04-01T13:40:41;12.30;91.50
23301;DHT22;11819;51.394;12.340;2023-04-01T13:43:25;12.30;91.80
23301;DHT22;11819;51.394;12.340;2023-04-01T13:48:56;12.30;91.90
23301;DHT22;11819;51.394;12.340;2023-04-01T13:51:36;12.40;92.00
23301;DHT22;11819;51.394;12.340;2023-04-01T13:57:20;12.30;91.90
23301;DHT22;11819;51.394;12.340;2023-04-01T14:08:41;12.00;92.70
23301;DHT22;11819;51.394;12.340;2023-04-01T14:13:56;12.00;93.00
23301;DHT22;11819;51.394;12.340;2023-04-01T14:27:37;12.10;93.80
23301;DHT22;11819;51.394;12.340;2023-04-01T14:30:35;12.10;93.80
23301;DHT22;11819;51.394;12.340;2023-04-01T14:35:46;12.30;94.00
23301;DHT22;11819;51.394;12.340;2023-04-01T14:38:29;12.30;94.10
23301;DHT22;11819;51.394;12.340;2023-04-01T14:43:59;12.30;94.20
23301;DHT22;11819;51.394;12.340;2023-04-01T14:49:46;12.40;94.10
23301;DHT22;11819;51.394;12.340;2023-04-01T14:52:28;12.30;93.90
23301;DHT22;11819;51.394;12.340;2023-04-01T14:54:54;12.20;93.90
23301;DHT22;11819;51.394;12.340;2023-04-01T14:57:31;12.30;94.10
23301;DHT22;11819;51.394;12.340;2023-04-01T15:10:50;12.20;94.20
23301;DHT22;11819;51.394;12.340;2023-04-01T15:21:13;12.40;94.80
23301;DHT22;11819;51.394;12.340;2023-04-01T15:24:10;12.40;94.80
23301;DHT22;11819;51.394;12.340;2023-04-01T15:32:40;12.50;95.00
23301;DHT22;11819;51.394;12.340;2023-04-01T15:38:40;12.50;94.90
23301;DHT22;11819;51.394;12.340;2023-04-01T15:41:15;12.60;94.90
23301;DHT22;11819;51.394;12.340;2023-04-01T15:43:49;12.50;94.90
23301;DHT22;11819;51.394;12.340;2023-04-01T15:49:37;12.60;95.10
23301;DHT22;11819;51.394;12.340;2023-04-01T15:52:10;12.60;95.10
23301;DHT22;11819;51.394;12.340;2023-04-01T16:02:45;12.50;95.40
23301;DHT22;11819;51.394;12.340;2023-04-01T16:05:42;12.50;95.60
23301;DHT22;11819;51.394;12.340;2023-04-01T16:08:38;12.50;95.70
23301;DHT22;11819;51.394;12.340;2023-04-01T16:14:11;12.50;96.00
23301;DHT22;11819;51.394;12.340;2023-04-01T16:17:00;12.50;96.10
23301;DHT22;11819;51.394;12.340;2023-04-01T16:22:31;12.50;96.20
23301;DHT22;11819;51.394;12.340;2023-04-01T16:25:20;12.40;96.30
23301;DHT22;11819;51.394;12.340;2023-04-01T16:33:18;12.40;96.50
23301;DHT22;11819;51.394;12.340;2023-04-01T16:35:55;12.40;96.60
23301;DHT22;11819;51.394;12.340;2023-04-01T16:38:36;12.40;96.60
23301;DHT22;11819;51.394;12.340;2023-04-01T16:41:19;12.40;96.70
23301;DHT22;11819;51.394;12.340;2023-04-01T16:43:53;12.40;96.70
23301;DHT22;11819;51.394;12.340;2023-04-01T16:46:42;12.40;96.80
23301;DHT22;11819;51.394;12.340;2023-04-01T16:54:36;12.30;97.00
23301;DHT22;11819;51.394;12.340;2023-04-01T16:57:55;12.30;97.40
23301;DHT22;11819;51.394;12.340;2023-04-01T17:00:19;12.30;97.00
23301;DHT22;11819;51.394;12.340;2023-04-01T17:05:50;12.20;97.10
23301;DHT22;11819;51.394;12.340;2023-04-01T17:11:28;12.20;97.10
23301;DHT22;11819;51.394;12.340;2023-04-01T17:16:54;12.20;97.10
23301;DHT22;11819;51.394;12.340;2023-04-01T17:22:32;12.10;97.20
23301;DHT22;11819;51.394;12.340;2023-04-01T17:28:10;12.10;97.30
23301;DHT22;11819;51.394;12.340;2023-04-01T17:41:52;12.00;97.30
23301;DHT22;11819;51.394;12.340;2023-04-01T17:44:50;12.00;97.30
23301;DHT22;11819;51.394;12.340;2023-04-01T17:47:39;12.00;97.30
23301;DHT22;11819;51.394;12.340;2023-04-01T17:53:36;11.90;97.20
23301;DHT22;11819;51.394;12.340;2023-04-01T17:56:12;11.90;97.30
23301;DHT22;11819;51.394;12.340;2023-04-01T17:58:48;11.90;97.20
23301;DHT22;11819;51.394;12.340;2023-04-01T18:07:26;11.90;97.10
23301;DHT22;11819;51.394;12.340;2023-04-01T18:15:53;11.80;97.20
23301;DHT22;11819;51.394;12.340;2023-04-01T18:18:46;11.80;97.20
23301;DHT22;11819;51.394;12.340;2023-04-01T18:23:59;11.70;97.20
23301;DHT22;11819;51.394;12.340;2023-04-01T18:26:33;11.70;97.20
23301;DHT22;11819;51.394;12.340;2023-04-01T18:32:10;11.70;97.40
23301;DHT22;11819;51.394;12.340;2023-04-01T18:37:36;11.60;97.40
23301;DHT22;11819;51.394;12.340;2023-04-01T18:40:23;11.60;97.40
23301;DHT22;11819;51.394;12.340;2023-04-01T18:45:54;11.60;97.50
23301;DHT22;11819;51.394;12.340;2023-04-01T18:54:05;11.50;97.50
23301;DHT22;11819;51.394;12.340;2023-04-01T18:56:38;11.50;97.50
23301;DHT22;11819;51.394;12.340;2023-04-01T18:59:21;11.50;97.60
23301;DHT22;11819;51.394;12.340;2023-04-01T19:01:57;11.50;97.40
23301;DHT22;11819;51.394;12.340;2023-04-01T19:07:47;11.50;97.40
23301;DHT22;11819;51.394;12.340;2023-04-01T19:13:11;11.30;97.00
23301;DHT22;11819;51.394;12.340;2023-04-01T19:16:09;11.20;97.30
23301;DHT22;11819;51.394;12.340;2023-04-01T19:21:44;11.10;97.10
23301;DHT22;11819;51.394;12.340;2023-04-01T19:33:00;11.00;96.80
23301;DHT22;11819;51.394;12.340;2023-04-01T19:35:49;10.90;96.70
23301;DHT22;11819;51.394;12.340;2023-04-01T19:38:38;10.80;96.60
23301;DHT22;11819;51.394;12.340;2023-04-01T19:41:40;10.80;96.60
23301;DHT22;11819;51.394;12.340;2023-04-01T19:47:38;10.60;96.80
23301;DHT22;11819;51.394;12.340;2023-04-01T19:52:50;10.60;97.00
23301;DHT22;11819;51.394;12.340;2023-04-01T19:55:42;10.60;97.10
23301;DHT22;11819;51.394;12.340;2023-04-01T19:58:22;10.60;97.50
23301;DHT22;11819;51.394;12.340;2023-04-01T20:00:57;10.60;97.40
23301;DHT22;11819;51.394;12.340;2023-04-01T20:09:40;10.50;96.80
23301;DHT22;11819;51.394;12.340;2023-04-01T20:12:33;10.40;96.70
23301;DHT22;11819;51.394;12.340;2023-04-01T20:15:28;10.30;96.60
23301;DHT22;11819;51.394;12.340;2023-04-01T20:17:58;10.20;96.60
23301;DHT22;11819;51.394;12.340;2023-04-01T20:20:27;10.20;96.60
23301;DHT22;11819;51.394;12.340;2023-04-01T20:25:41;10.10;96.70
23301;DHT22;11819;51.394;12.340;2023-04-01T20:39:20;10.00;96.90
23301;DHT22;11819;51.394;12.340;2023-04-01T20:47:22;9.90;96.80
23301;DHT22;11819;51.394;12.340;2023-04-01T20:50:21;9.90;96.90
23301;DHT22;11819;51.394;12.340;2023-04-01T20:53:19;9.90;96.80
23301;DHT22;11819;51.394;12.340;2023-04-01T20:56:14;9.90;96.80
23301;DHT22;11819;51.394;12.340;2023-04-01T21:07:37;9.80;96.50
23301;DHT22;11819;51.394;12.340;2023-04-01T21:11:01;9.70;96.50
23301;DHT22;11819;51.394;12.340;2023-04-01T21:19:32;9.70;96.50
23301;DHT22;11819;51.394;12.340;2023-04-01T21:25:47;9.60;96.20
23301;DHT22;11819;51.394;12.340;2023-04-01T21:30:47;9.50;96.20
23301;DHT22;11819;51.394;12.340;2023-04-01T21:36:14;9.30;96.20
23301;DHT22;11819;51.394;12.340;2023-04-01T21:39:13;9.20;96.10
23301;DHT22;11819;51.394;12.340;2023-04-01T21:47:28;9.10;95.90
23301;DHT22;11819;51.394;12.340;2023-04-01T22:12:52;8.80;95.80
23301;DHT22;11819;51.394;12.340;2023-04-01T22:18:33;8.80;95.70
23301;DHT22;11819;51.394;12.340;2023-04-01T22:21:10;8.80;95.70
23301;DHT22;11819;51.394;12.340;2023-04-01T22:24:06;8.80;95.70
23301;DHT22;11819;51.394;12.340;2023-04-01T22:26:47;8.80;95.60
23301;DHT22;11819;51.394;12.340;2023-04-01T22:29:38;8.80;95.60
23301;DHT22;11819;51.394;12.340;2023-04-01T22:32:16;8.70;95.50
23301;DHT22;11819;51.394;12.340;2023-04-01T22:35:09;8.70;95.40
23301;DHT22;11819;51.394;12.340;2023-04-01T22:40:40;8.60;95.40
23301;DHT22;11819;51.394;12.340;2023-04-01T22:46:01;8.60;95.60
23301;DHT22;11819;51.394;12.340;2023-04-01T22:48:35;8.60;95.60
23301;DHT22;11819;51.394;12.340;2023-04-01T22:53:56;8.50;95.40
23301;DHT22;11819;51.394;12.340;2023-04-01T22:56:30;8.40;95.50
23301;DHT22;11819;51.394;12.340;2023-04-01T22:59:04;8.40;95.50
23301;DHT22;11819;51.394;12.340;2023-04-01T23:01:36;8.40;95.20
23301;DHT22;11819;51.394;12.340;2023-04-01T23:04:05;8.30;95.20
23301;DHT22;11819;51.394;12.340;2023-04-01T23:06:48;8.30;95.20
23301;DHT22;11819;51.394;12.340;2023-04-01T23:09:22;8.20;95.20
23301;DHT22;11819;51.394;12.340;2023-04-01T23:11:58;8.10;95.10
23301;DHT22;11819;51.394;12.340;2023-04-01T23:14:43;8.10;95.10
23301;DHT22;11819;51.394;12.340;2023-04-01T23:22:43;8.00;95.30
23301;DHT22;11819;51.394;12.340;2023-04-01T23:28:23;7.90;95.30
23301;DHT22;11819;51.394;12.340;2023-04-01T23:30:53;7.90;95.30
23301;DHT22;11819;51.394;12.340;2023-04-01T23:35:56;7.90;95.60
23301;DHT22;11819;51.394;12.340;2023-04-01T23:38:35;7.90;95.60
23301;DHT22;11819;51.394;12.340;2023-04-01T23:41:03;7.90;95.70
23301;DHT22;11819;51.394;12.340;2023-04-01T23:43:55;8.00;95.70
23301;DHT22;11819;51.394;12.340;2023-04-01T23:46:21;8.00;95.50
23301;DHT22;11819;51.394;12.340;2023-04-01T23:48:49;7.90;95.40
23301;DHT22;11819;51.394;12.340;2023-04-01T23:51:28;7.90;95.40
23301;DHT22;11819;51.394;12.340;2023-04-01T23:54:14;7.80;95.40
23301;DHT22;11819;51.394;12.340;2023-04-01T23:56:48;7.80;95.50
23301;DHT22;11819;51.394;12.340;2023-04-01T23:59:23;7.80;95.50
